Time;durP1;ratioP1;P1;durP2;ratioP2;P2;SDS_P1;SDS_P2;PMS_P1;PMS_P2;Temp;Humidity;BMP_temperature;BMP_pressure;BME280_temperature;BME280_humidity;BME280_pressure;Samples;Min_cycle;Max_cycle;Signal;HPM_P1;HPM_P2
2023/01/02 00:02:44;;;;;;;;;;;;;;;;;;4975416;28;6690;-72
2023/01/02 00:05:09;;;;;;;;;;;;;;;;;;4976669;28;7059;-71
2023/01/02 00:07:35;;;;;;;;;;;;;;;;;;4976194;28;7195;-71
2023/01/02 00:10:00;;;;;;;;;;;;;;;;;;4976381;28;7173;-71
2023/01/02 00:12:26;;;;;;;;;;;;;;;;;;4976054;28;7206;-71
2023/01/02 00:14:52;;;;;;;;;;;;;;;;;;4976608;28;7165;-71
2023/01/02 00:17:18;;;;;;;;;;;;;;;;;;4977933;28;7189;-71
2023/01/02 00:19:44;;;;;;;;;;;;;;;;;;4995671;28;7405;-71
2023/01/02 00:22:09;;;;;;;;;;;;;;;;;;4995552;28;7092;-71
2023/01/02 00:24:45;;;;;;;;;;;;;;;;;;4995637;28;6984;-71
2023/01/02 00:27:11;;;;;;;;;;;;;;;;;;4995241;28;6955;-71
2023/01/02 00:29:36;;;;;;;;;;;;;;;;;;4995160;28;7191;-71
2023/01/02 00:32:02;;;;;;;;;;;;;;;;;;4995093;28;6960;-71
2023/01/02 00:34:27;;;;;;;;;;;;;;;;;;4995459;28;7105;-71
2023/01/02 00:37:30;;;;;;;;;;;;;;;;;;4995447;28;7283;-71
2023/01/02 00:39:55;;;;;;;;;;;;;;;;;;4995328;28;7161;-71
2023/01/02 00:42:21;;;;;;;;;;;;;;;;;;4995372;28;7167;-71
2023/01/02 00:47:43;;;;;;;;;;;;;;;;;;5010059;28;6917;-71
2023/01/02 00:56:26;;;;;;;;;;;;;;;;;;5014624;28;6693;-71
2023/01/02 00:58:52;;;;;;;;;;;;;;;;;;5014450;28;6969;-71
2023/01/02 01:04:20;;;;;;;;;;;;;;;;;;5014575;28;6697;-71
2023/01/02 01:06:46;;;;;;;;;;;;;;;;;;5014711;28;7173;-71
2023/01/02 01:09:12;;;;;;;;;;;;;;;;;;5014605;28;6871;-71
2023/01/02 01:11:54;;;;;;;;;;;;;;;;;;5015333;28;7431;-71
2023/01/02 01:14:20;;;;;;;;;;;;;;;;;;5015772;28;7396;-71
2023/01/02 01:19:48;;;;;;;;;;;;;;;;;;5017969;28;6947;-71
2023/01/02 01:22:13;;;;;;;;;;;;;;;;;;5018431;28;7305;-71
2023/01/02 01:24:39;;;;;;;;;;;;;;;;;;5018399;28;6942;-71
2023/01/02 01:30:08;;;;;;;;;;;;;;;;;;5017963;28;6680;-71
2023/01/02 01:32:33;;;;;;;;;;;;;;;;;;5017880;28;6968;-71
2023/01/02 01:34:59;;;;;;;;;;;;;;;;;;5018217;28;7036;-71
2023/01/02 01:37:25;;;;;;;;;;;;;;;;;;5018471;28;7118;-71
2023/01/02 01:40:04;;;;;;;;;;;;;;;;;;5018047;28;7158;-71
2023/01/02 01:42:32;;;;;;;;;;;;;;;;;;5017914;28;7199;-71
2023/01/02 01:48:01;;;;;;;;;;;;;;;;;;5017662;28;6679;-71
2023/01/02 01:53:25;;;;;;;;;;;;;;;;;;5017990;28;7019;-71
2023/01/02 02:02:01;;;;;;;;;;;;;;;;;;5017436;28;7062;-71
2023/01/02 02:04:27;;;;;;;;;;;;;;;;;;5017645;28;7186;-71
2023/01/02 02:07:12;;;;;;;;;;;;;;;;;;5017602;28;7224;-71
2023/01/02 02:09:44;;;;;;;;;;;;;;;;;;5017639;28;7209;-71
2023/01/02 02:12:11;;;;;;;;;;;;;;;;;;5017415;28;7126;-71
2023/01/02 02:14:37;;;;;;;;;;;;;;;;;;5017461;28;7807;-71
2023/01/02 02:17:17;;;;;;;;;;;;;;;;;;5017517;28;7058;-71
2023/01/02 02:32:15;;;;;;;;;;;;;;;;;;5017016;28;6835;-71
2023/01/02 02:34:47;;;;;;;;;;;;;;;;;;5017051;28;7165;-71
2023/01/02 02:40:47;;;;;;;;;;;;;;;;;;5017119;28;6687;-71
2023/01/02 02:46:18;;;;;;;;;;;;;;;;;;5015973;28;6811;-71
2023/01/02 02:49:02;;;;;;;;;;;;;;;;;;4997246;28;7353;-71
2023/01/02 02:51:28;;;;;;;;;;;;;;;;;;4996629;28;7851;-71
2023/01/02 02:56:59;;;;;;;;;;;;;;;;;;4997331;28;6693;-71
2023/01/02 02:59:25;;;;;;;;;;;;;;;;;;4997024;28;7133;-71
2023/01/02 03:07:56;;;;;;;;;;;;;;;;;;4996662;28;6927;-71
2023/01/02 03:16:47;;;;;;;;;;;;;;;;;;4996559;28;6952;-71
2023/01/02 03:22:39;;;;;;;;;;;;;;;;;;4996369;28;6977;-71
2023/01/02 03:25:06;;;;;;;;;;;;;;;;;;4996529;28;7427;-71
2023/01/02 03:27:36;;;;;;;;;;;;;;;;;;4996543;28;7016;-71
2023/01/02 03:30:27;;;;;;;;;;;;;;;;;;4996437;28;6956;-71
2023/01/02 03:33:00;;;;;;;;;;;;;;;;;;4996237;28;7279;-71
2023/01/02 03:38:35;;;;;;;;;;;;;;;;;;4996013;28;7002;-71
2023/01/02 03:41:10;;;;;;;;;;;;;;;;;;4996267;28;7193;-71
2023/01/02 03:47:05;;;;;;;;;;;;;;;;;;4995888;28;7019;-71
2023/01/02 03:49:35;;;;;;;;;;;;;;;;;;4996167;28;7077;-71
2023/01/02 03:52:01;;;;;;;;;;;;;;;;;;5005682;28;7309;-71
2023/01/02 03:55:03;;;;;;;;;;;;;;;;;;5015621;28;7205;-71
2023/01/02 03:57:47;;;;;;;;;;;;;;;;;;5016596;28;7184;-71
2023/01/02 04:00:17;;;;;;;;;;;;;;;;;;5015514;28;7372;-71
2023/01/02 04:03:00;;;;;;;;;;;;;;;;;;5015383;28;6828;-71
2023/01/02 04:05:47;;;;;;;;;;;;;;;;;;5015443;28;7085;-71
2023/01/02 04:08:19;;;;;;;;;;;;;;;;;;5015940;28;7271;-71
2023/01/02 04:10:48;;;;;;;;;;;;;;;;;;5015031;28;8039;-71
2023/01/02 04:13:21;;;;;;;;;;;;;;;;;;5015196;28;7503;-71
2023/01/02 04:15:48;;;;;;;;;;;;;;;;;;5015177;28;7138;-71
2023/01/02 04:18:20;;;;;;;;;;;;;;;;;;5015323;28;7155;-71
2023/01/02 04:20:49;;;;;;;;;;;;;;;;;;5015224;28;7414;-71
2023/01/02 04:23:25;;;;;;;;;;;;;;;;;;5015134;28;7136;-72
2023/01/02 04:26:14;;;;;;;;;;;;;;;;;;5015001;28;7126;-70
2023/01/02 04:31:54;;;;;;;;;;;;;;;;;;5014947;28;6691;-70
2023/01/02 04:40:29;;;;;;;;;;;;;;;;;;5014860;28;6949;-71
2023/01/02 04:42:55;;;;;;;;;;;;;;;;;;5014819;28;7067;-70
2023/01/02 04:45:21;;;;;;;;;;;;;;;;;;5014938;28;7206;-71
2023/01/02 04:56:55;;;;;;;;;;;;;;;;;;5018799;28;6678;-71
2023/01/02 04:59:40;;;;;;;;;;;;;;;;;;5018879;28;7096;-71
2023/01/02 05:02:05;;;;;;;;;;;;;;;;;;5018721;28;7521;-70
2023/01/02 05:04:31;;;;;;;;;;;;;;;;;;5018493;28;7199;-70
2023/01/02 05:06:56;;;;;;;;;;;;;;;;;;5018889;28;7357;-71
2023/01/02 05:09:22;;;;;;;;;;;;;;;;;;5001123;28;8514;-71
2023/01/02 05:12:01;;;;;;;;;;;;;;;;;;5018538;28;7164;-71
2023/01/02 05:14:28;;;;;;;;;;;;;;;;;;5017294;28;8988;-71
2023/01/02 05:16:54;;;;;;;;;;;;;;;;;;5018598;28;7483;-70
2023/01/02 05:19:57;;;;;;;;;;;;;;;;;;5018491;28;7087;-71
2023/01/02 05:25:08;;;;;;;;;;;;;;;;;;5018459;28;6971;-70
2023/01/02 05:27:33;;;;;;;;;;;;;;;;;;5018356;28;8330;-71
2023/01/02 05:29:59;;;;;;;;;;;;;;;;;;5017922;28;7208;-71
2023/01/02 05:32:33;;;;;;;;;;;;;;;;;;5018223;28;7039;-70
2023/01/02 05:34:59;;;;;;;;;;;;;;;;;;5018230;28;7256;-71
2023/01/02 05:37:34;;;;;;;;;;;;;;;;;;5018278;28;7126;-71
2023/01/02 05:39:59;;;;;;;;;;;;;;;;;;5018090;28;7264;-70
2023/01/02 05:42:25;;;;;;;;;;;;;;;;;;5017984;28;7227;-71
2023/01/02 05:44:51;;;;;;;;;;;;;;;;;;5017650;28;7998;-71
2023/01/02 05:47:22;;;;;;;;;;;;;;;;;;5008253;28;6987;-71
2023/01/02 05:52:50;;;;;;;;;;;;;;;;;;5017233;28;6932;-71
2023/01/02 05:55:16;;;;;;;;;;;;;;;;;;5009560;28;7196;-71
2023/01/02 05:58:17;;;;;;;;;;;;;;;;;;4984516;28;7417;-70
2023/01/02 06:00:43;;;;;;;;;;;;;;;;;;5018013;28;7591;-71
2023/01/02 06:03:08;;;;;;;;;;;;;;;;;;5014460;28;7047;-71
2023/01/02 06:05:54;;;;;;;;;;;;;;;;;;5009472;28;7388;-71
2023/01/02 06:08:19;;;;;;;;;;;;;;;;;;4997992;28;7630;-71
2023/01/02 06:10:48;;;;;;;;;;;;;;;;;;4997942;28;7133;-71
2023/01/02 06:13:14;;;;;;;;;;;;;;;;;;4997679;28;7202;-71
2023/01/02 06:18:42;;;;;;;;;;;;;;;;;;4997597;28;7046;-71
2023/01/02 06:21:39;;;;;;;;;;;;;;;;;;4997756;28;7123;-71
2023/01/02 06:24:05;;;;;;;;;;;;;;;;;;4998528;28;7578;-71
2023/01/02 06:26:45;;;;;;;;;;;;;;;;;;4997694;28;7340;-71
2023/01/02 06:29:10;;;;;;;;;;;;;;;;;;4997849;28;7181;-71
2023/01/02 06:32:13;;;;;;;;;;;;;;;;;;4997126;28;7133;-71
2023/01/02 06:34:38;;;;;;;;;;;;;;;;;;4997607;28;7222;-71
2023/01/02 06:37:04;;;;;;;;;;;;;;;;;;4999404;28;7566;-70
2023/01/02 06:39:57;;;;;;;;;;;;;;;;;;5011957;28;8178;-71
2023/01/02 06:42:22;;;;;;;;;;;;;;;;;;5001014;28;7727;-71
2023/01/02 06:45:22;;;;;;;;;;;;;;;;;;5017063;28;7168;-71
2023/01/02 06:47:48;;;;;;;;;;;;;;;;;;5016890;28;7093;-71
2023/01/02 06:50:13;;;;;;;;;;;;;;;;;;5032079;28;8319;-71
2023/01/02 06:52:52;;;;;;;;;;;;;;;;;;5016484;28;6926;-71
2023/01/02 06:55:17;;;;;;;;;;;;;;;;;;5000127;28;7210;-71
2023/01/02 06:58:20;;;;;;;;;;;;;;;;;;4997153;28;7263;-71
2023/01/02 07:00:46;;;;;;;;;;;;;;;;;;4997566;28;7251;-71
2023/01/02 07:03:11;;;;;;;;;;;;;;;;;;5004527;28;7470;-71
2023/01/02 07:08:39;;;;;;;;;;;;;;;;;;5016308;28;6779;-71
2023/01/02 07:11:07;;;;;;;;;;;;;;;;;;5016389;28;7362;-70
2023/01/02 07:16:35;;;;;;;;;;;;;;;;;;4996503;28;6702;-71
2023/01/02 07:19:01;;;;;;;;;;;;;;;;;;5015787;28;7012;-70
2023/01/02 07:21:27;;;;;;;;;;;;;;;;;;5016099;28;7100;-71
2023/01/02 07:26:51;;;;;;;;;;;;;;;;;;5015146;28;7035;-70
2023/01/02 07:29:34;;;;;;;;;;;;;;;;;;5015794;28;7147;-70
2023/01/02 07:31:59;;;;;;;;;;;;;;;;;;5015520;28;7099;-70
2023/01/02 07:34:27;;;;;;;;;;;;;;;;;;5016063;28;7178;-71
2023/01/02 07:36:52;;;;;;;;;;;;;;;;;;5016029;28;7032;-70
2023/01/02 07:39:21;;;;;;;;;;;;;;;;;;5015887;28;6955;-70
2023/01/02 07:41:46;;;;;;;;;;;;;;;;;;5015542;28;6980;-70
2023/01/02 07:59:43;;;;;;;;;;;;;;;;;;5015297;28;6685;-70
2023/01/02 08:02:10;;;;;;;;;;;;;;;;;;5015625;28;8695;-71
2023/01/02 08:04:35;;;;;;;;;;;;;;;;;;5015981;28;7191;-70
2023/01/02 08:16:25;;;;;;;;;;;;;;;;;;5015108;28;6932;-70
2023/01/02 08:18:54;;;;;;;;;;;;;;;;;;5015179;28;6943;-71
2023/01/02 08:24:55;;;;;;;;;;;;;;;;;;5014142;28;6719;-70
2023/01/02 08:27:21;;;;;;;;;;;;;;;;;;5002368;28;6957;-72
2023/01/02 08:32:49;;;;;;;;;;;;;;;;;;4995214;28;6821;-71
2023/01/02 08:35:15;;;;;;;;;;;;;;;;;;4995137;28;6951;-71
2023/01/02 08:37:40;;;;;;;;;;;;;;;;;;4995435;28;7272;-72
2023/01/02 08:43:09;;;;;;;;;;;;;;;;;;4995140;28;7009;-70
2023/01/02 08:45:35;;;;;;;;;;;;;;;;;;4995317;28;7169;-70
2023/01/02 08:48:01;;;;;;;;;;;;;;;;;;4995439;28;7134;-71
2023/01/02 08:50:54;;;;;;;;;;;;;;;;;;4995361;28;6931;-70
2023/01/02 08:53:19;;;;;;;;;;;;;;;;;;4994769;28;7117;-70
2023/01/02 08:56:03;;;;;;;;;;;;;;;;;;4995226;28;7053;-70
2023/01/02 08:58:29;;;;;;;;;;;;;;;;;;5007679;28;7318;-70
2023/01/02 09:01:11;;;;;;;;;;;;;;;;;;5014755;28;7167;-70
2023/01/02 09:03:37;;;;;;;;;;;;;;;;;;5014541;28;7376;-70
2023/01/02 09:06:03;;;;;;;;;;;;;;;;;;5014795;28;7240;-70
2023/01/02 09:11:34;;;;;;;;;;;;;;;;;;4994930;28;6732;-70
2023/01/02 09:14:01;;;;;;;;;;;;;;;;;;4995421;28;7167;-70
2023/01/02 09:22:32;;;;;;;;;;;;;;;;;;4994736;28;6894;-71
2023/01/02 09:25:00;;;;;;;;;;;;;;;;;;4995036;28;7023;-72
2023/01/02 09:27:25;;;;;;;;;;;;;;;;;;5075578;23;7240;-72
2023/01/02 09:29:52;;;;;;;;;;;;;;;;;;5032396;28;8701;-71
2023/01/02 09:32:18;;;;;;;;;;;;;;;;;;5034854;28;7144;-71
2023/01/02 09:35:07;;;;;;;;;;;;;;;;;;5034500;28;6957;-71
2023/01/02 09:37:32;;;;;;;;;;;;;;;;;;5038006;28;7097;-71
2023/01/02 09:43:09;;;;;;;;;;;;;;;;;;5038029;28;6912;-72
2023/01/02 09:45:40;;;;;;;;;;;;;;;;;;5038115;28;7073;-72
2023/01/02 09:51:10;;;;;;;;;;;;;;;;;;5037849;28;6814;-72
2023/01/02 09:53:36;;;;;;;;;;;;;;;;;;5038243;28;7561;-72
2023/01/02 09:56:22;;;;;;;;;;;;;;;;;;5037690;28;7170;-72
2023/01/02 10:02:26;;;;;;;;;;;;;;;;;;5037809;28;6966;-72
2023/01/02 10:13:56;;;;;;;;;;;;;;;;;;5037281;28;7025;-71
2023/01/02 10:16:58;;;;;;;;;;;;;;;;;;5037322;28;6933;-72
2023/01/02 10:19:33;;;;;;;;;;;;;;;;;;5037299;28;6950;-71
2023/01/02 10:22:01;;;;;;;;;;;;;;;;;;5037328;28;7167;-71
2023/01/02 10:24:52;;;;;;;;;;;;;;;;;;5036991;28;7301;-71
2023/01/02 10:27:21;;;;;;;;;;;;;;;;;;5021092;28;7067;-71
2023/01/02 10:30:05;;;;;;;;;;;;;;;;;;5019493;28;8785;-71
2023/01/02 10:32:32;;;;;;;;;;;;;;;;;;5036449;28;6926;-72
2023/01/02 10:34:57;;;;;;;;;;;;;;;;;;5036663;28;6882;-72
2023/01/02 10:37:58;;;;;;;;;;;;;;;;;;5036813;28;7105;-72
2023/01/02 10:40:25;;;;;;;;;;;;;;;;;;5036899;28;6980;-72
2023/01/02 10:45:54;;;;;;;;;;;;;;;;;;5031415;28;6704;-72
2023/01/02 10:48:25;;;;;;;;;;;;;;;;;;5018989;28;7232;-72
2023/01/02 10:51:00;;;;;;;;;;;;;;;;;;5016756;28;7125;-72
2023/01/02 10:53:38;;;;;;;;;;;;;;;;;;5016394;28;7271;-72
2023/01/02 10:56:06;;;;;;;;;;;;;;;;;;5016745;28;6961;-72
2023/01/02 10:58:34;;;;;;;;;;;;;;;;;;5016747;28;6908;-72
2023/01/02 11:04:28;;;;;;;;;;;;;;;;;;5016320;28;6950;-72
2023/01/02 11:06:59;;;;;;;;;;;;;;;;;;5016173;28;7361;-72
2023/01/02 11:09:29;;;;;;;;;;;;;;;;;;5016567;28;7211;-72
2023/01/02 11:11:57;;;;;;;;;;;;;;;;;;5016305;28;7207;-72
2023/01/02 11:14:27;;;;;;;;;;;;;;;;;;5016442;28;7190;-72
2023/01/02 11:17:00;;;;;;;;;;;;;;;;;;5016027;28;7183;-72
2023/01/02 11:19:25;;;;;;;;;;;;;;;;;;5016374;28;6943;-72
2023/01/02 11:21:52;;;;;;;;;;;;;;;;;;5016133;28;7134;-72
2023/01/02 11:27:13;;;;;;;;;;;;;;;;;;5024226;28;6986;-72
2023/01/02 11:29:54;;;;;;;;;;;;;;;;;;5019512;28;7189;-72
2023/01/02 11:32:22;;;;;;;;;;;;;;;;;;5015843;28;7150;-72
2023/01/02 11:40:58;;;;;;;;;;;;;;;;;;5015594;28;6679;-72
2023/01/02 11:43:57;;;;;;;;;;;;;;;;;;5015750;28;7381;-72
2023/01/02 11:46:33;;;;;;;;;;;;;;;;;;5015782;28;7413;-71
2023/01/02 11:55:23;;;;;;;;;;;;;;;;;;4995875;28;6996;-71
2023/01/02 11:57:53;;;;;;;;;;;;;;;;;;4995956;28;7382;-71
2023/01/02 12:00:20;;;;;;;;;;;;;;;;;;4995894;28;7067;-71
2023/01/02 12:02:47;;;;;;;;;;;;;;;;;;4995880;28;7064;-71
2023/01/02 12:05:15;;;;;;;;;;;;;;;;;;4995924;28;7123;-71
2023/01/02 12:13:47;;;;;;;;;;;;;;;;;;4995949;28;6927;-71
2023/01/02 12:16:38;;;;;;;;;;;;;;;;;;4999565;28;7458;-71
2023/01/02 12:19:09;;;;;;;;;;;;;;;;;;5035210;28;7130;-71
2023/01/02 12:40:05;;;;;;;;;;;;;;;;;;4956601;28;6677;-71
2023/01/02 12:45:52;;;;;;;;;;;;;;;;;;4956491;28;6691;-71
2023/01/02 12:48:41;;;;;;;;;;;;;;;;;;4957202;28;7056;-71
2023/01/02 12:51:06;;;;;;;;;;;;;;;;;;4962088;28;7229;-71
2023/01/02 12:53:44;;;;;;;;;;;;;;;;;;4964893;28;7577;-71
2023/01/02 12:56:15;;;;;;;;;;;;;;;;;;4975926;28;7157;-71
2023/01/02 12:58:44;;;;;;;;;;;;;;;;;;4975766;28;7147;-71
2023/01/02 13:01:12;;;;;;;;;;;;;;;;;;4975854;28;7058;-71
2023/01/02 13:03:44;;;;;;;;;;;;;;;;;;4975732;28;7123;-71
2023/01/02 13:06:37;;;;;;;;;;;;;;;;;;4975832;28;7098;-71
2023/01/02 13:09:02;;;;;;;;;;;;;;;;;;4962243;28;7978;-71
2023/01/02 13:12:02;;;;;;;;;;;;;;;;;;4960033;28;7166;-71
2023/01/02 13:14:34;;;;;;;;;;;;;;;;;;4960338;28;7165;-71
2023/01/02 13:17:36;;;;;;;;;;;;;;;;;;4960323;28;7133;-71
2023/01/02 13:26:05;;;;;;;;;;;;;;;;;;4966718;28;7029;-71
2023/01/02 13:28:32;;;;;;;;;;;;;;;;;;4997824;28;8509;-71
2023/01/02 13:31:06;;;;;;;;;;;;;;;;;;5018405;28;7073;-71
2023/01/02 13:36:59;;;;;;;;;;;;;;;;;;5018118;28;7379;-71
2023/01/02 13:39:45;;;;;;;;;;;;;;;;;;5017418;28;7075;-71
2023/01/02 13:45:17;;;;;;;;;;;;;;;;;;5017724;28;7106;-71
2023/01/02 13:47:50;;;;;;;;;;;;;;;;;;5007007;28;7222;-71
2023/01/02 13:50:48;;;;;;;;;;;;;;;;;;5024983;28;7132;-71
2023/01/02 13:53:26;;;;;;;;;;;;;;;;;;5037437;28;7181;-71
2023/01/02 13:58:55;;;;;;;;;;;;;;;;;;5037291;28;6981;-71
2023/01/02 14:01:20;;;;;;;;;;;;;;;;;;5037574;28;7388;-71
2023/01/02 14:12:53;;;;;;;;;;;;;;;;;;5022703;28;7156;-71
2023/01/02 14:15:26;;;;;;;;;;;;;;;;;;5034423;28;7215;-71
2023/01/02 14:18:15;;;;;;;;;;;;;;;;;;5022842;28;7220;-71
2023/01/02 14:20:44;;;;;;;;;;;;;;;;;;5025613;28;6919;-71
2023/01/02 14:26:39;;;;;;;;;;;;;;;;;;5017037;28;6798;-71
2023/01/02 14:29:11;;;;;;;;;;;;;;;;;;4987120;28;7671;-71
2023/01/02 14:31:56;;;;;;;;;;;;;;;;;;5017137;28;7477;-71
2023/01/02 14:34:24;;;;;;;;;;;;;;;;;;5017870;28;7132;-71
2023/01/02 14:37:00;;;;;;;;;;;;;;;;;;5017141;28;7264;-71
2023/01/02 14:39:38;;;;;;;;;;;;;;;;;;5017647;28;7333;-71
2023/01/02 14:45:12;;;;;;;;;;;;;;;;;;4997485;28;6789;-71
2023/01/02 14:47:44;;;;;;;;;;;;;;;;;;4996908;28;7229;-71
2023/01/02 14:50:15;;;;;;;;;;;;;;;;;;4997369;28;7156;-71
2023/01/02 14:52:47;;;;;;;;;;;;;;;;;;4997114;28;7265;-71
2023/01/02 14:55:19;;;;;;;;;;;;;;;;;;4997217;28;7200;-71
2023/01/02 14:57:47;;;;;;;;;;;;;;;;;;4997723;28;7180;-71
2023/01/02 15:00:19;;;;;;;;;;;;;;;;;;4996709;28;6903;-71
2023/01/02 15:02:49;;;;;;;;;;;;;;;;;;5002460;28;7191;-71
2023/01/02 15:08:22;;;;;;;;;;;;;;;;;;5016429;28;6680;-71
2023/01/02 15:10:55;;;;;;;;;;;;;;;;;;5011011;28;7146;-71
2023/01/02 15:16:43;;;;;;;;;;;;;;;;;;4996637;28;7415;-71
2023/01/02 15:22:14;;;;;;;;;;;;;;;;;;4997370;28;6794;-71
2023/01/02 15:27:46;;;;;;;;;;;;;;;;;;4996419;28;6989;-71
2023/01/02 15:30:37;;;;;;;;;;;;;;;;;;4996540;28;7393;-71
2023/01/02 15:33:04;;;;;;;;;;;;;;;;;;4995996;28;7161;-71
2023/01/02 15:35:35;;;;;;;;;;;;;;;;;;4996490;28;7188;-71
2023/01/02 15:38:03;;;;;;;;;;;;;;;;;;4996443;28;7643;-71
2023/01/02 15:40:32;;;;;;;;;;;;;;;;;;4996469;28;6951;-71
2023/01/02 15:49:07;;;;;;;;;;;;;;;;;;4998645;28;6685;-71
2023/01/02 15:51:33;;;;;;;;;;;;;;;;;;4996115;28;6945;-71
2023/01/02 15:53:59;;;;;;;;;;;;;;;;;;4996099;28;7104;-71
2023/01/02 15:56:35;;;;;;;;;;;;;;;;;;4996119;28;7351;-71
2023/01/02 15:59:02;;;;;;;;;;;;;;;;;;4995754;28;7438;-71
2023/01/02 16:01:28;;;;;;;;;;;;;;;;;;4995958;28;7323;-71
2023/01/02 16:09:59;;;;;;;;;;;;;;;;;;4995792;28;7041;-71
2023/01/02 16:12:26;;;;;;;;;;;;;;;;;;5010948;28;8721;-71
2023/01/02 16:14:56;;;;;;;;;;;;;;;;;;4995831;28;7071;-71
2023/01/02 16:20:26;;;;;;;;;;;;;;;;;;4995631;28;6681;-71
2023/01/02 16:25:56;;;;;;;;;;;;;;;;;;4995411;28;6935;-71
2023/01/02 16:28:41;;;;;;;;;;;;;;;;;;4995667;28;7432;-71
2023/01/02 16:31:06;;;;;;;;;;;;;;;;;;4976093;28;7191;-71
2023/01/02 16:34:06;;;;;;;;;;;;;;;;;;4976002;28;7095;-71
2023/01/02 16:36:31;;;;;;;;;;;;;;;;;;4976105;28;7172;-71
2023/01/02 16:39:34;;;;;;;;;;;;;;;;;;4976113;28;7110;-71
2023/01/02 16:44:56;;;;;;;;;;;;;;;;;;4975626;28;6808;-71
2023/01/02 16:47:24;;;;;;;;;;;;;;;;;;4980033;28;6832;-71
2023/01/02 16:53:02;;;;;;;;;;;;;;;;;;4995061;28;6906;-71
2023/01/02 16:58:30;;;;;;;;;;;;;;;;;;4995189;28;6686;-71
2023/01/02 17:00:56;;;;;;;;;;;;;;;;;;4994979;28;7174;-71
2023/01/02 17:06:59;;;;;;;;;;;;;;;;;;4994977;28;6948;-71
2023/01/02 17:13:04;;;;;;;;;;;;;;;;;;4994982;28;7046;-71
2023/01/02 17:15:31;;;;;;;;;;;;;;;;;;4995217;28;7138;-71
2023/01/02 17:17:57;;;;;;;;;;;;;;;;;;4994817;28;6959;-71
2023/01/02 17:20:23;;;;;;;;;;;;;;;;;;4995052;28;6938;-71
2023/01/02 17:22:48;;;;;;;;;;;;;;;;;;4994870;28;7153;-71
2023/01/02 17:25:46;;;;;;;;;;;;;;;;;;4993668;28;8574;-71
2023/01/02 17:28:12;;;;;;;;;;;;;;;;;;4975241;28;7210;-71
2023/01/02 17:30:41;;;;;;;;;;;;;;;;;;4999722;28;7087;-71
2023/01/02 17:33:07;;;;;;;;;;;;;;;;;;5014854;28;7260;-71
2023/01/02 17:38:35;;;;;;;;;;;;;;;;;;5011755;28;7017;-71
2023/01/02 17:41:06;;;;;;;;;;;;;;;;;;4994866;28;7355;-71
2023/01/02 17:43:32;;;;;;;;;;;;;;;;;;5012538;28;7240;-71
2023/01/02 17:46:03;;;;;;;;;;;;;;;;;;5014531;28;7311;-71
2023/01/02 17:48:29;;;;;;;;;;;;;;;;;;5014361;28;7194;-71
2023/01/02 17:51:14;;;;;;;;;;;;;;;;;;5015561;28;7138;-71
2023/01/02 17:53:39;;;;;;;;;;;;;;;;;;5014318;28;6857;-71
2023/01/02 17:56:05;;;;;;;;;;;;;;;;;;5015068;28;7202;-71
2023/01/02 18:07:44;;;;;;;;;;;;;;;;;;5016641;28;6942;-71
2023/01/02 18:10:09;;;;;;;;;;;;;;;;;;5001475;28;7037;-71
2023/01/02 18:12:36;;;;;;;;;;;;;;;;;;4980383;28;7034;-71
2023/01/02 18:15:21;;;;;;;;;;;;;;;;;;5012224;28;7173;-71
2023/01/02 18:17:47;;;;;;;;;;;;;;;;;;5017535;28;7248;-71
2023/01/02 18:23:10;;;;;;;;;;;;;;;;;;5017574;28;7020;-71
2023/01/02 18:31:42;;;;;;;;;;;;;;;;;;5016701;28;6934;-71
2023/01/02 18:34:27;;;;;;;;;;;;;;;;;;5017167;28;7336;-71
2023/01/02 18:36:53;;;;;;;;;;;;;;;;;;5016998;28;7449;-71
2023/01/02 18:39:50;;;;;;;;;;;;;;;;;;5016920;28;7054;-71
2023/01/02 18:42:21;;;;;;;;;;;;;;;;;;5016299;28;7098;-71
2023/01/02 18:50:58;;;;;;;;;;;;;;;;;;5016728;28;6924;-71
2023/01/02 18:53:46;;;;;;;;;;;;;;;;;;5016802;28;7256;-71
2023/01/02 18:56:15;;;;;;;;;;;;;;;;;;5016549;28;7186;-71
2023/01/02 19:01:50;;;;;;;;;;;;;;;;;;5016266;28;6685;-71
2023/01/02 19:04:24;;;;;;;;;;;;;;;;;;5016689;28;7126;-71
2023/01/02 19:10:01;;;;;;;;;;;;;;;;;;5016165;28;7055;-71
2023/01/02 19:15:48;;;;;;;;;;;;;;;;;;5016640;28;6803;-73
2023/01/02 19:18:13;;;;;;;;;;;;;;;;;;5016406;28;7007;-71
2023/01/02 19:20:48;;;;;;;;;;;;;;;;;;5016477;28;7592;-71
2023/01/02 19:26:16;;;;;;;;;;;;;;;;;;5016209;28;6697;-71
2023/01/02 19:31:45;;;;;;;;;;;;;;;;;;5006719;28;6721;-71
2023/01/02 19:37:39;;;;;;;;;;;;;;;;;;5015879;28;6937;-71
2023/01/02 19:40:08;;;;;;;;;;;;;;;;;;5017175;28;7127;-71
2023/01/02 19:42:37;;;;;;;;;;;;;;;;;;5015661;28;7465;-71
2023/01/02 19:45:11;;;;;;;;;;;;;;;;;;5015612;28;7020;-71
2023/01/02 19:47:39;;;;;;;;;;;;;;;;;;5015740;28;7069;-71
2023/01/02 19:50:07;;;;;;;;;;;;;;;;;;5015910;28;6970;-71
2023/01/02 19:52:42;;;;;;;;;;;;;;;;;;5015636;28;7169;-71
2023/01/02 19:55:08;;;;;;;;;;;;;;;;;;5015769;28;6994;-71
2023/01/02 19:57:34;;;;;;;;;;;;;;;;;;5015342;28;8324;-71
2023/01/02 20:03:03;;;;;;;;;;;;;;;;;;5015306;28;6930;-71
2023/01/02 20:05:28;;;;;;;;;;;;;;;;;;5015535;28;7060;-72
2023/01/02 20:07:56;;;;;;;;;;;;;;;;;;5016175;28;7391;-72
2023/01/02 20:10:23;;;;;;;;;;;;;;;;;;5015398;28;7425;-72
2023/01/02 20:12:49;;;;;;;;;;;;;;;;;;5015273;28;7140;-72
2023/01/02 20:15:16;;;;;;;;;;;;;;;;;;5015477;28;6938;-72
2023/01/02 20:17:44;;;;;;;;;;;;;;;;;;5015926;28;7180;-72
2023/01/02 20:20:12;;;;;;;;;;;;;;;;;;5015242;28;7370;-72
2023/01/02 20:22:40;;;;;;;;;;;;;;;;;;5015627;28;7199;-71
2023/01/02 20:25:05;;;;;;;;;;;;;;;;;;5015193;28;7307;-71
2023/01/02 20:27:54;;;;;;;;;;;;;;;;;;5015105;28;7057;-71
2023/01/02 20:30:21;;;;;;;;;;;;;;;;;;4995670;28;7430;-71
2023/01/02 20:32:54;;;;;;;;;;;;;;;;;;4995075;28;7208;-71
2023/01/02 20:35:20;;;;;;;;;;;;;;;;;;4995590;28;7095;-71
2023/01/02 20:37:46;;;;;;;;;;;;;;;;;;4995371;28;7547;-71
2023/01/02 20:40:29;;;;;;;;;;;;;;;;;;5005919;28;7319;-71
2023/01/02 20:42:55;;;;;;;;;;;;;;;;;;5019320;28;7074;-71
2023/01/02 20:45:48;;;;;;;;;;;;;;;;;;5030906;28;7120;-71
2023/01/02 20:48:14;;;;;;;;;;;;;;;;;;5014666;28;8497;-71
2023/01/02 20:53:45;;;;;;;;;;;;;;;;;;5014687;28;6757;-71
2023/01/02 20:56:11;;;;;;;;;;;;;;;;;;5015232;28;7183;-71
2023/01/02 20:58:40;;;;;;;;;;;;;;;;;;5014741;28;7031;-71
2023/01/02 21:01:05;;;;;;;;;;;;;;;;;;5014994;28;7034;-71
2023/01/02 21:06:35;;;;;;;;;;;;;;;;;;5014742;28;6933;-71
2023/01/02 21:09:01;;;;;;;;;;;;;;;;;;5014901;28;7086;-71
2023/01/02 21:11:57;;;;;;;;;;;;;;;;;;5014776;28;7041;-71
2023/01/02 21:14:23;;;;;;;;;;;;;;;;;;5014620;28;7449;-71
2023/01/02 21:17:22;;;;;;;;;;;;;;;;;;5014484;28;7298;-71
2023/01/02 21:22:50;;;;;;;;;;;;;;;;;;5014437;28;6918;-71
2023/01/02 21:28:20;;;;;;;;;;;;;;;;;;5014328;28;6948;-71
2023/01/02 21:31:10;;;;;;;;;;;;;;;;;;5011473;28;7183;-71
2023/01/02 21:33:36;;;;;;;;;;;;;;;;;;4979175;28;7063;-72
2023/01/02 21:36:03;;;;;;;;;;;;;;;;;;4979106;28;7498;-71
2023/01/02 21:38:43;;;;;;;;;;;;;;;;;;4959807;28;7200;-71
2023/01/02 21:43:53;;;;;;;;;;;;;;;;;;4959738;28;7564;-71
2023/01/02 21:52:43;;;;;;;;;;;;;;;;;;4978557;28;7121;-71
2023/01/02 21:58:26;;;;;;;;;;;;;;;;;;4959291;28;6984;-71
2023/01/02 22:00:52;;;;;;;;;;;;;;;;;;4959483;28;7056;-75
2023/01/02 22:03:46;;;;;;;;;;;;;;;;;;4959378;28;7351;-71
2023/01/02 22:06:12;;;;;;;;;;;;;;;;;;4975418;28;7417;-71
2023/01/02 22:08:49;;;;;;;;;;;;;;;;;;4974598;28;7063;-71
2023/01/02 22:17:20;;;;;;;;;;;;;;;;;;4978315;28;6995;-71
2023/01/02 22:19:46;;;;;;;;;;;;;;;;;;4978313;28;7007;-71
2023/01/02 22:22:12;;;;;;;;;;;;;;;;;;4978174;28;7415;-71
2023/01/02 22:24:38;;;;;;;;;;;;;;;;;;4978454;28;7105;-71
2023/01/02 22:27:05;;;;;;;;;;;;;;;;;;4978274;28;7221;-71
2023/01/02 22:29:32;;;;;;;;;;;;;;;;;;4978193;28;7452;-71
2023/01/02 22:31:59;;;;;;;;;;;;;;;;;;4991632;28;7012;-71
2023/01/02 22:34:26;;;;;;;;;;;;;;;;;;5012382;28;7258;-71
2023/01/02 22:36:52;;;;;;;;;;;;;;;;;;4997545;28;7441;-71
2023/01/02 22:39:17;;;;;;;;;;;;;;;;;;4997560;28;7305;-71
2023/01/02 22:44:53;;;;;;;;;;;;;;;;;;4997469;28;6904;-71
2023/01/02 22:47:30;;;;;;;;;;;;;;;;;;5000993;28;7378;-71
2023/01/02 22:56:05;;;;;;;;;;;;;;;;;;5017045;28;7213;-71
2023/01/02 22:58:30;;;;;;;;;;;;;;;;;;5016543;28;6946;-71
2023/01/02 23:00:57;;;;;;;;;;;;;;;;;;5016758;28;7038;-71
2023/01/02 23:03:22;;;;;;;;;;;;;;;;;;5016969;28;7497;-71
2023/01/02 23:05:48;;;;;;;;;;;;;;;;;;5016594;28;7168;-71
2023/01/02 23:08:24;;;;;;;;;;;;;;;;;;5016768;28;7096;-71
2023/01/02 23:10:49;;;;;;;;;;;;;;;;;;5016546;28;7428;-71
2023/01/02 23:22:23;;;;;;;;;;;;;;;;;;5016141;28;6830;-71
2023/01/02 23:24:49;;;;;;;;;;;;;;;;;;5016335;28;7292;-71
2023/01/02 23:27:15;;;;;;;;;;;;;;;;;;5016266;28;7271;-71
2023/01/02 23:29:40;;;;;;;;;;;;;;;;;;5015906;28;7359;-71
2023/01/02 23:32:09;;;;;;;;;;;;;;;;;;5012531;28;7139;-71
2023/01/02 23:37:43;;;;;;;;;;;;;;;;;;5015877;28;6686;-71
2023/01/02 23:40:09;;;;;;;;;;;;;;;;;;5015737;28;7433;-71
2023/01/02 23:42:35;;;;;;;;;;;;;;;;;;5015893;28;6932;-71
2023/01/02 23:45:01;;;;;;;;;;;;;;;;;;5015593;28;7091;-71
2023/01/02 23:47:48;;;;;;;;;;;;;;;;;;5016143;28;6981;-71
2023/01/02 23:50:22;;;;;;;;;;;;;;;;;;5015605;28;7029;-72
2023/01/02 23:52:48;;;;;;;;;;;;;;;;;;5015312;28;7947;-71
2023/01/02 23:55:13;;;;;;;;;;;;;;;;;;5016008;28;7289;-75
